Time;durP1;ratioP1;P1;durP2;ratioP2;P2;SDS_P1;SDS_P2;PMS_P1;PMS_P2;Temp;Humidity;BMP_temperature;BMP_pressure;BME280_temperature;BME280_humidity;BME280_pressure;Samples;Min_cycle;Max_cycle;Signal;HPM_P1;HPM_P2
2022/01/20 00:04:04;;;;;;;;;;;3.80;99.90;;;;;;5077483;28;19935;-83
2022/01/20 00:28:14;;;;;;;;;;;4.30;99.90;;;;;;5077410;28;19925;-83
2022/01/20 00:38:15;;;;;;;;;;;4.00;99.90;;;;;;5077076;28;19946;-83
2022/01/20 00:40:41;;;;;;;;;;;4.10;99.90;;;;;;5076870;28;20007;-83
2022/01/20 00:43:06;;;;;;;;;;;4.10;99.90;;;;;;5074554;28;19925;-83
2022/01/20 00:45:32;;;;;;;;;;;4.20;99.90;;;;;;5059928;28;20260;-83
2022/01/20 00:47:57;;;;;;;;;;;4.30;99.90;;;;;;5063028;28;20379;-83
2022/01/20 00:50:24;;;;;;;;;;;4.20;99.90;;;;;;5060659;28;19975;-82
2022/01/20 00:52:50;;;;;;;;;;;4.20;99.90;;;;;;5063355;28;19976;-82
2022/01/20 00:55:16;;;;;;;;;;;4.20;99.90;;;;;;5061963;28;19940;-82
2022/01/20 00:57:41;;;;;;;;;;;4.10;99.90;;;;;;5061408;28;19924;-82
2022/01/20 01:00:08;;;;;;;;;;;4.00;99.90;;;;;;5061049;28;19931;-82
2022/01/20 01:02:35;;;;;;;;;;;3.90;99.90;;;;;;5058785;28;19962;-82
2022/01/20 01:05:01;;;;;;;;;;;3.80;99.90;;;;;;5042684;28;19978;-82
2022/01/20 01:10:15;;;;;;;;;;;3.70;99.90;;;;;;5064888;28;20349;-82
2022/01/20 01:15:15;;;;;;;;;;;3.60;99.90;;;;;;5064524;28;20294;-82
2022/01/20 01:20:27;;;;;;;;;;;3.40;99.90;;;;;;5063243;28;19924;-82
2022/01/20 01:22:52;;;;;;;;;;;3.40;99.90;;;;;;5046219;28;19925;-82
2022/01/20 01:25:18;;;;;;;;;;;3.40;99.90;;;;;;5046989;28;19948;-82
2022/01/20 01:27:45;;;;;;;;;;;3.40;99.90;;;;;;5063718;28;20391;-82
2022/01/20 01:32:54;;;;;;;;;;;3.40;99.90;;;;;;5065491;28;19935;-82
2022/01/20 01:35:22;;;;;;;;;;;3.40;99.90;;;;;;5063313;28;19929;-82
2022/01/20 01:40:20;;;;;;;;;;;3.40;99.90;;;;;;5065807;28;20448;-82
2022/01/20 01:42:49;;;;;;;;;;;3.40;99.90;;;;;;5065227;28;19925;-82
2022/01/20 01:45:16;;;;;;;;;;;3.40;99.90;;;;;;5083883;28;20033;-82
2022/01/20 01:47:41;;;;;;;;;;;3.50;99.90;;;;;;5083880;28;19981;-82
2022/01/20 01:50:07;;;;;;;;;;;3.50;99.90;;;;;;5083613;28;19964;-83
2022/01/20 01:52:33;;;;;;;;;;;3.70;99.90;;;;;;5083812;28;20018;-82
2022/01/20 01:54:59;;;;;;;;;;;4.50;99.90;;;;;;5084750;28;20481;-82
2022/01/20 01:57:25;;;;;;;;;;;3.80;99.90;;;;;;5083494;28;19925;-82
2022/01/20 01:59:50;;;;;;;;;;;3.70;99.90;;;;;;5066548;28;19968;-82
2022/01/20 02:02:16;;;;;;;;;;;3.60;99.90;;;;;;5083441;28;20062;-82
2022/01/20 02:04:42;;;;;;;;;;;3.60;99.90;;;;;;5082474;28;19932;-82
2022/01/20 02:18:36;;;;;;;;;;;3.50;99.90;;;;;;5081662;28;19925;-82
2022/01/20 02:20:38;;;;;;;;;;;3.50;99.90;;;;;;5082942;28;20023;-82
2022/01/20 02:23:03;;;;;;;;;;;3.60;99.90;;;;;;5065759;28;19966;-82
2022/01/20 02:25:30;;;;;;;;;;;3.60;99.90;;;;;;5083706;28;20260;-82
2022/01/20 02:27:56;;;;;;;;;;;3.70;99.90;;;;;;5084626;28;19921;-82
2022/01/20 02:30:23;;;;;;;;;;;3.60;99.90;;;;;;5083074;28;19968;-82
2022/01/20 02:32:53;;;;;;;;;;;3.60;99.90;;;;;;5082767;28;19924;-82
2022/01/20 02:35:18;;;;;;;;;;;3.70;99.90;;;;;;5084416;28;20279;-82
2022/01/20 02:37:47;;;;;;;;;;;3.70;99.90;;;;;;5083015;28;19932;-82
2022/01/20 02:45:25;;;;;;;;;;;3.80;99.90;;;;;;5064119;28;19924;-82
2022/01/20 02:47:50;;;;;;;;;;;3.70;99.90;;;;;;5070007;28;19939;-82
2022/01/20 02:50:16;;;;;;;;;;;3.80;99.90;;;;;;5070574;28;19925;-82
2022/01/20 02:52:41;;;;;;;;;;;3.70;99.90;;;;;;5066433;28;19925;-83
2022/01/20 02:55:07;;;;;;;;;;;3.70;99.90;;;;;;5066132;28;20386;-82
2022/01/20 02:57:33;;;;;;;;;;;3.70;99.90;;;;;;5064195;28;19928;-82
2022/01/20 02:59:58;;;;;;;;;;;3.70;99.90;;;;;;5064792;28;19976;-83
2022/01/20 03:02:24;;;;;;;;;;;3.70;99.90;;;;;;5071000;28;20391;-82
2022/01/20 03:04:51;;;;;;;;;;;3.70;99.90;;;;;;5071166;28;19990;-83
2022/01/20 03:07:17;;;;;;;;;;;3.70;99.90;;;;;;5065374;28;19980;-83
2022/01/20 03:09:42;;;;;;;;;;;3.70;99.90;;;;;;5065632;28;19925;-83
2022/01/20 03:12:08;;;;;;;;;;;3.70;99.90;;;;;;5063829;28;19925;-83
2022/01/20 03:14:33;;;;;;;;;;;3.70;99.90;;;;;;5065799;28;19932;-83
2022/01/20 03:16:59;;;;;;;;;;;3.70;99.90;;;;;;5062505;28;19964;-82
2022/01/20 03:19:25;;;;;;;;;;;3.80;99.90;;;;;;5062768;28;19928;-82
2022/01/20 03:21:50;;;;;;;;;;;3.80;99.90;;;;;;5063978;28;19929;-82
2022/01/20 03:24:16;;;;;;;;;;;3.80;99.90;;;;;;5063526;28;19925;-82
2022/01/20 03:26:41;;;;;;;;;;;3.70;99.90;;;;;;5064622;28;19929;-83
2022/01/20 03:29:09;;;;;;;;;;;3.70;99.90;;;;;;5063289;28;19925;-82
2022/01/20 03:31:35;;;;;;;;;;;3.60;99.90;;;;;;5061747;28;19992;-83
2022/01/20 03:34:00;;;;;;;;;;;3.60;99.90;;;;;;5065542;28;19928;-82
2022/01/20 03:36:26;;;;;;;;;;;3.50;99.90;;;;;;5064930;28;20008;-83
2022/01/20 03:38:52;;;;;;;;;;;3.40;99.90;;;;;;5062133;28;19925;-83
2022/01/20 03:41:18;;;;;;;;;;;3.30;99.90;;;;;;5060951;28;19928;-83
2022/01/20 03:43:44;;;;;;;;;;;3.60;99.90;;;;;;5065066;28;19931;-82
2022/01/20 03:46:12;;;;;;;;;;;3.40;99.90;;;;;;5066885;28;19924;-83
2022/01/20 03:48:49;;;;;;;;;;;3.30;99.90;;;;;;5082535;28;19925;-83
2022/01/20 03:51:15;;;;;;;;;;;3.40;99.90;;;;;;5065562;28;19930;-83
2022/01/20 03:53:41;;;;;;;;;;;3.40;99.90;;;;;;5082589;28;19924;-83
2022/01/20 03:56:07;;;;;;;;;;;3.40;99.90;;;;;;5065619;28;20372;-83
2022/01/20 03:58:32;;;;;;;;;;;3.40;99.90;;;;;;5081458;28;19974;-83
2022/01/20 04:00:58;;;;;;;;;;;3.40;99.90;;;;;;5083467;28;19980;-83
2022/01/20 04:03:24;;;;;;;;;;;3.40;99.90;;;;;;5083748;28;19947;-83
2022/01/20 04:05:56;;;;;;;;;;;3.40;99.90;;;;;;5081275;28;20406;-83
2022/01/20 04:08:23;;;;;;;;;;;3.40;99.90;;;;;;5082345;28;19925;-83
2022/01/20 04:10:48;;;;;;;;;;;3.40;99.90;;;;;;5078397;28;19931;-83
2022/01/20 04:13:14;;;;;;;;;;;3.40;99.90;;;;;;5078330;28;19971;-83
2022/01/20 04:15:41;;;;;;;;;;;3.50;99.90;;;;;;5078317;28;19954;-83
2022/01/20 04:18:07;;;;;;;;;;;3.50;99.90;;;;;;5080763;28;19924;-83
2022/01/20 04:20:33;;;;;;;;;;;3.50;99.90;;;;;;5090191;28;19925;-82
2022/01/20 04:22:58;;;;;;;;;;;3.60;99.90;;;;;;5087027;28;20402;-83
2022/01/20 04:25:25;;;;;;;;;;;3.50;99.90;;;;;;5082618;28;19986;-83
2022/01/20 04:27:50;;;;;;;;;;;3.50;99.90;;;;;;5079810;28;19928;-83
2022/01/20 04:30:16;;;;;;;;;;;3.70;99.90;;;;;;5078729;28;19982;-83
2022/01/20 04:32:41;;;;;;;;;;;3.30;99.90;;;;;;5095194;28;20314;-83
2022/01/20 04:35:07;;;;;;;;;;;3.20;99.90;;;;;;5079671;28;19921;-83
2022/01/20 04:37:32;;;;;;;;;;;3.20;99.90;;;;;;5077622;28;20026;-83
2022/01/20 04:40:00;;;;;;;;;;;3.10;99.90;;;;;;5111510;28;20294;-83
2022/01/20 04:42:28;;;;;;;;;;;3.10;99.90;;;;;;5078349;28;20488;-83
2022/01/20 04:44:59;;;;;;;;;;;3.00;99.90;;;;;;5097638;28;19924;-83
2022/01/20 04:58:06;;;;;;;;;;;3.00;99.90;;;;;;5081038;28;19925;-83
2022/01/20 05:00:32;;;;;;;;;;;3.00;99.90;;;;;;5083808;28;20024;-83
2022/01/20 05:02:57;;;;;;;;;;;3.80;99.90;;;;;;5079130;28;20012;-83
2022/01/20 05:05:23;;;;;;;;;;;3.00;99.90;;;;;;5080316;28;19992;-83
2022/01/20 05:07:49;;;;;;;;;;;2.80;99.90;;;;;;5080280;28;20303;-83
2022/01/20 05:10:15;;;;;;;;;;;2.70;99.90;;;;;;5081788;28;19928;-83
2022/01/20 05:15:18;;;;;;;;;;;2.60;99.90;;;;;;5080241;28;19946;-83
2022/01/20 05:17:44;;;;;;;;;;;2.50;99.90;;;;;;5080646;28;19954;-82
2022/01/20 05:20:10;;;;;;;;;;;2.50;99.90;;;;;;5080886;28;19942;-83
2022/01/20 05:22:35;;;;;;;;;;;2.40;99.90;;;;;;5082850;28;20019;-83
2022/01/20 05:25:02;;;;;;;;;;;2.30;99.90;;;;;;5082598;28;19939;-83
2022/01/20 05:27:27;;;;;;;;;;;2.30;99.90;;;;;;5080658;28;20582;-83
2022/01/20 05:29:55;;;;;;;;;;;2.30;99.90;;;;;;5082174;28;19967;-83
2022/01/20 05:32:21;;;;;;;;;;;2.40;99.90;;;;;;5079547;28;20004;-83
2022/01/20 05:34:46;;;;;;;;;;;2.40;99.90;;;;;;5079410;28;20390;-82
2022/01/20 05:37:12;;;;;;;;;;;2.30;99.90;;;;;;5078979;28;20018;-82
2022/01/20 05:39:37;;;;;;;;;;;2.20;99.90;;;;;;5078751;28;19924;-83
2022/01/20 05:42:03;;;;;;;;;;;2.10;99.90;;;;;;5081950;28;20438;-83
2022/01/20 05:44:28;;;;;;;;;;;2.00;99.90;;;;;;5066738;28;19925;-83
2022/01/20 05:46:54;;;;;;;;;;;1.90;99.90;;;;;;5061072;28;20371;-83
2022/01/20 05:49:23;;;;;;;;;;;1.90;99.90;;;;;;5060689;28;19929;-82
2022/01/20 05:51:52;;;;;;;;;;;1.90;99.90;;;;;;5063237;28;19932;-83
2022/01/20 05:54:18;;;;;;;;;;;1.90;99.90;;;;;;5065217;28;19931;-82
2022/01/20 05:56:44;;;;;;;;;;;1.80;99.90;;;;;;5063643;28;19972;-82
2022/01/20 05:59:09;;;;;;;;;;;1.80;99.90;;;;;;5064178;28;19979;-82
2022/01/20 06:01:37;;;;;;;;;;;1.90;99.90;;;;;;5063328;28;19925;-82
2022/01/20 06:04:03;;;;;;;;;;;2.30;99.90;;;;;;5064977;28;20294;-82
2022/01/20 06:06:28;;;;;;;;;;;2.00;99.90;;;;;;5063917;28;19946;-82
2022/01/20 06:08:54;;;;;;;;;;;2.00;99.90;;;;;;5064641;28;19932;-82
2022/01/20 06:11:19;;;;;;;;;;;2.10;99.90;;;;;;5063566;28;20383;-82
2022/01/20 06:13:45;;;;;;;;;;;2.20;99.90;;;;;;5061663;28;19921;-82
2022/01/20 06:16:10;;;;;;;;;;;2.80;99.90;;;;;;5044797;28;19956;-83
2022/01/20 06:18:36;;;;;;;;;;;2.20;99.90;;;;;;5062466;28;19921;-82
2022/01/20 06:21:02;;;;;;;;;;;2.10;99.90;;;;;;5064233;28;19968;-82
2022/01/20 06:23:28;;;;;;;;;;;2.00;99.90;;;;;;5063204;28;19925;-83
2022/01/20 06:25:54;;;;;;;;;;;2.00;99.90;;;;;;5063287;28;19920;-83
2022/01/20 06:28:19;;;;;;;;;;;1.90;99.90;;;;;;5063863;28;19924;-82
2022/01/20 06:30:45;;;;;;;;;;;1.90;99.90;;;;;;5063400;28;19931;-82
2022/01/20 06:33:11;;;;;;;;;;;1.80;99.90;;;;;;5071620;28;19924;-82
2022/01/20 06:35:37;;;;;;;;;;;1.80;99.90;;;;;;5054068;28;19925;-82
2022/01/20 06:38:03;;;;;;;;;;;1.90;99.90;;;;;;5065016;28;19925;-82
2022/01/20 06:40:30;;;;;;;;;;;1.90;99.90;;;;;;5064765;28;19924;-82
2022/01/20 06:42:55;;;;;;;;;;;1.90;99.90;;;;;;5065661;28;19925;-82
2022/01/20 06:45:22;;;;;;;;;;;1.80;99.90;;;;;;5066289;28;19975;-82
2022/01/20 06:47:48;;;;;;;;;;;1.80;99.90;;;;;;5085988;28;20022;-82
2022/01/20 06:50:14;;;;;;;;;;;1.80;99.90;;;;;;5083892;28;19982;-82
2022/01/20 06:52:40;;;;;;;;;;;1.70;99.90;;;;;;5084581;28;19978;-82
2022/01/20 06:55:07;;;;;;;;;;;1.70;99.90;;;;;;5083755;28;19924;-82
2022/01/20 06:57:36;;;;;;;;;;;1.70;99.90;;;;;;5085902;28;20462;-82
2022/01/20 07:00:03;;;;;;;;;;;1.70;99.90;;;;;;5084340;28;20366;-82
2022/01/20 07:02:29;;;;;;;;;;;1.70;99.90;;;;;;5083967;28;19972;-82
2022/01/20 07:04:54;;;;;;;;;;;1.70;99.90;;;;;;5085368;28;19947;-82
2022/01/20 07:07:20;;;;;;;;;;;1.80;99.90;;;;;;5083578;28;19935;-82
2022/01/20 07:09:45;;;;;;;;;;;1.90;99.90;;;;;;5082373;28;19924;-82
2022/01/20 07:12:11;;;;;;;;;;;2.00;99.90;;;;;;5081770;28;19931;-83
2022/01/20 07:14:38;;;;;;;;;;;2.00;99.90;;;;;;5084271;28;19927;-82
2022/01/20 07:17:04;;;;;;;;;;;2.00;99.90;;;;;;5084839;28;20290;-82
2022/01/20 07:19:30;;;;;;;;;;;2.00;99.90;;;;;;5084405;28;19978;-82
2022/01/20 07:21:55;;;;;;;;;;;2.00;99.90;;;;;;5083472;28;19959;-82
2022/01/20 07:24:21;;;;;;;;;;;2.00;99.90;;;;;;5067371;28;19924;-82
2022/01/20 07:26:46;;;;;;;;;;;1.90;99.90;;;;;;5087435;28;20031;-82
2022/01/20 07:29:12;;;;;;;;;;;1.90;99.90;;;;;;5084710;28;19924;-82
2022/01/20 07:31:37;;;;;;;;;;;1.90;99.90;;;;;;5084958;28;19932;-82
2022/01/20 07:34:03;;;;;;;;;;;1.90;99.90;;;;;;5084014;28;19936;-82
2022/01/20 07:36:29;;;;;;;;;;;1.90;99.90;;;;;;5083204;28;19924;-82
2022/01/20 07:38:54;;;;;;;;;;;1.80;99.90;;;;;;5081800;28;19929;-81
2022/01/20 07:41:20;;;;;;;;;;;1.80;99.90;;;;;;5076045;28;19926;-83
2022/01/20 07:43:46;;;;;;;;;;;1.80;99.90;;;;;;5066638;28;19970;-83
2022/01/20 07:46:11;;;;;;;;;;;1.80;99.90;;;;;;5054786;28;20374;-83
2022/01/20 07:48:37;;;;;;;;;;;1.90;99.90;;;;;;5055347;28;20008;-83
2022/01/20 07:51:04;;;;;;;;;;;1.80;99.90;;;;;;5054507;28;20019;-83
2022/01/20 07:53:30;;;;;;;;;;;1.90;99.90;;;;;;5056719;28;19928;-83
2022/01/20 07:55:55;;;;;;;;;;;1.90;99.90;;;;;;5055224;28;20398;-83
2022/01/20 07:58:21;;;;;;;;;;;2.70;99.90;;;;;;5055035;28;19932;-82
2022/01/20 08:00:46;;;;;;;;;;;2.00;99.90;;;;;;5055138;28;19976;-83
2022/01/20 08:03:12;;;;;;;;;;;2.00;99.90;;;;;;5054750;28;20342;-83
2022/01/20 08:05:37;;;;;;;;;;;2.10;99.90;;;;;;5037422;28;20355;-82
2022/01/20 08:08:03;;;;;;;;;;;2.10;99.90;;;;;;5037209;28;19970;-83
2022/01/20 08:10:30;;;;;;;;;;;2.20;99.90;;;;;;5053832;28;19967;-83
2022/01/20 08:12:56;;;;;;;;;;;2.10;99.90;;;;;;5054252;28;19924;-83
2022/01/20 08:15:21;;;;;;;;;;;2.10;99.90;;;;;;5053600;28;19948;-83
2022/01/20 08:17:47;;;;;;;;;;;2.20;99.90;;;;;;5054507;28;20019;-83
2022/01/20 08:20:13;;;;;;;;;;;2.20;99.90;;;;;;5055339;28;19950;-83
2022/01/20 08:22:38;;;;;;;;;;;2.30;99.90;;;;;;5055624;28;19948;-83
2022/01/20 08:25:05;;;;;;;;;;;2.40;99.90;;;;;;5055336;28;19928;-83
2022/01/20 08:27:31;;;;;;;;;;;2.50;99.90;;;;;;5054151;28;19935;-83
2022/01/20 08:29:56;;;;;;;;;;;2.60;99.90;;;;;;5053792;28;19925;-83
2022/01/20 08:32:22;;;;;;;;;;;2.60;99.90;;;;;;5054331;28;19925;-82
2022/01/20 08:34:47;;;;;;;;;;;2.60;99.90;;;;;;5054542;28;20267;-84
2022/01/20 08:37:13;;;;;;;;;;;2.70;99.90;;;;;;5057315;28;19931;-82
2022/01/20 08:39:40;;;;;;;;;;;2.60;99.90;;;;;;5060180;28;20375;-82
2022/01/20 08:42:06;;;;;;;;;;;2.60;99.90;;;;;;5059431;28;19924;-82
2022/01/20 08:44:32;;;;;;;;;;;2.50;99.90;;;;;;5057397;28;20438;-82
2022/01/20 08:46:58;;;;;;;;;;;2.50;99.90;;;;;;5077070;28;19963;-83
2022/01/20 08:49:24;;;;;;;;;;;2.50;99.90;;;;;;5074239;28;19931;-83
2022/01/20 08:51:51;;;;;;;;;;;2.50;99.90;;;;;;5073838;28;19944;-82
2022/01/20 08:54:16;;;;;;;;;;;2.60;99.90;;;;;;5073332;28;19964;-83
2022/01/20 08:56:42;;;;;;;;;;;2.60;99.90;;;;;;5077208;28;19974;-82
2022/01/20 08:59:08;;;;;;;;;;;2.60;99.90;;;;;;5073982;28;19924;-83
2022/01/20 09:01:35;;;;;;;;;;;2.60;99.90;;;;;;5072801;28;19931;-83
2022/01/20 09:04:01;;;;;;;;;;;2.60;99.90;;;;;;5072684;28;19987;-83
2022/01/20 09:06:26;;;;;;;;;;;2.70;99.90;;;;;;5074757;28;20040;-83
2022/01/20 09:08:52;;;;;;;;;;;2.80;99.90;;;;;;5078180;28;19968;-83
2022/01/20 09:11:19;;;;;;;;;;;3.00;99.90;;;;;;5075485;28;19924;-83
2022/01/20 09:16:30;;;;;;;;;;;3.10;99.90;;;;;;5076610;28;19928;-83
2022/01/20 09:18:56;;;;;;;;;;;3.00;99.90;;;;;;5075181;28;19932;-83
2022/01/20 09:21:22;;;;;;;;;;;2.80;99.90;;;;;;5073500;28;20014;-83
2022/01/20 09:23:47;;;;;;;;;;;2.70;99.90;;;;;;5075328;28;19929;-83
2022/01/20 09:26:13;;;;;;;;;;;2.70;99.90;;;;;;5075338;28;19932;-83
2022/01/20 09:28:39;;;;;;;;;;;2.70;99.90;;;;;;5079325;28;19925;-82
2022/01/20 09:31:06;;;;;;;;;;;2.80;99.90;;;;;;5063543;28;19924;-83
2022/01/20 09:33:31;;;;;;;;;;;2.90;99.90;;;;;;5081177;28;19931;-82
2022/01/20 09:35:57;;;;;;;;;;;3.10;99.90;;;;;;5082550;28;19924;-82
2022/01/20 09:38:23;;;;;;;;;;;3.10;99.90;;;;;;5079879;28;20027;-82
2022/01/20 09:40:49;;;;;;;;;;;3.10;99.90;;;;;;5080354;28;19959;-83
2022/01/20 09:43:15;;;;;;;;;;;3.00;99.90;;;;;;5078718;28;19979;-83
2022/01/20 09:45:41;;;;;;;;;;;2.90;99.90;;;;;;5059545;28;19928;-83
2022/01/20 09:48:07;;;;;;;;;;;3.00;99.90;;;;;;5062199;28;19932;-82
2022/01/20 09:50:32;;;;;;;;;;;3.10;99.90;;;;;;5063045;28;19924;-82
2022/01/20 09:53:01;;;;;;;;;;;3.20;99.90;;;;;;5058553;28;20398;-83
2022/01/20 09:55:28;;;;;;;;;;;3.30;99.90;;;;;;5059026;28;19966;-84
2022/01/20 09:57:54;;;;;;;;;;;3.30;99.90;;;;;;5056441;28;19925;-83
2022/01/20 10:00:19;;;;;;;;;;;3.40;99.90;;;;;;5056522;28;19944;-83
2022/01/20 10:03:09;;;;;;;;;;;3.40;99.90;;;;;;5056562;28;19947;-83
2022/01/20 10:05:39;;;;;;;;;;;3.60;99.90;;;;;;4983244;28;19940;-83
2022/01/20 10:08:05;;;;;;;;;;;3.80;99.90;;;;;;4999395;28;19933;-83
2022/01/20 10:10:45;;;;;;;;;;;3.90;99.90;;;;;;5021747;28;19930;-83
2022/01/20 10:13:12;;;;;;;;;;;3.90;99.90;;;;;;5033329;28;19933;-83
2022/01/20 10:15:38;;;;;;;;;;;3.90;99.90;;;;;;5009826;28;19921;-83
2022/01/20 10:18:11;;;;;;;;;;;3.90;99.90;;;;;;5003609;28;19981;-83
2022/01/20 10:20:49;;;;;;;;;;;3.80;99.90;;;;;;5009581;28;19942;-83
2022/01/20 10:23:25;;;;;;;;;;;3.70;99.90;;;;;;5013267;28;19933;-86
2022/01/20 10:26:01;;;;;;;;;;;3.70;99.90;;;;;;4999816;28;20367;-83
2022/01/20 10:28:26;;;;;;;;;;;3.90;99.90;;;;;;4999489;28;19925;-83
2022/01/20 10:30:55;;;;;;;;;;;3.70;99.90;;;;;;5018011;28;20022;-83
2022/01/20 10:33:21;;;;;;;;;;;4.40;99.90;;;;;;5000269;28;19930;-83
2022/01/20 10:35:46;;;;;;;;;;;3.70;99.90;;;;;;5000455;28;19932;-83
2022/01/20 10:38:16;;;;;;;;;;;3.60;99.90;;;;;;5017472;28;20011;-83
2022/01/20 10:40:46;;;;;;;;;;;3.60;99.90;;;;;;5001708;28;19926;-83
2022/01/20 10:43:18;;;;;;;;;;;3.60;99.90;;;;;;5051500;28;19925;-82
2022/01/20 10:45:44;;;;;;;;;;;3.70;99.90;;;;;;5083203;28;19924;-82
2022/01/20 10:48:16;;;;;;;;;;;3.80;99.90;;;;;;5081336;28;19935;-83
2022/01/20 10:50:42;;;;;;;;;;;4.60;99.90;;;;;;5081448;28;19925;-82
2022/01/20 10:53:20;;;;;;;;;;;4.00;99.90;;;;;;5080369;28;19925;-83
2022/01/20 10:55:46;;;;;;;;;;;4.00;99.90;;;;;;5079857;28;20387;-83
2022/01/20 10:58:11;;;;;;;;;;;4.00;99.90;;;;;;5077560;28;19925;-82
2022/01/20 11:00:42;;;;;;;;;;;4.10;99.90;;;;;;5077318;28;19932;-83
2022/01/20 11:03:08;;;;;;;;;;;4.10;99.90;;;;;;5076357;28;19925;-83
2022/01/20 11:05:33;;;;;;;;;;;4.30;99.90;;;;;;5062564;28;20010;-82
2022/01/20 11:08:00;;;;;;;;;;;4.50;99.90;;;;;;5082248;28;19931;-81
2022/01/20 11:10:25;;;;;;;;;;;4.60;99.90;;;;;;5084106;28;20299;-82
2022/01/20 11:12:51;;;;;;;;;;;4.70;99.90;;;;;;5081539;28;19925;-85
2022/01/20 11:15:18;;;;;;;;;;;4.70;99.90;;;;;;5083693;28;19924;-82
2022/01/20 11:17:44;;;;;;;;;;;4.60;99.90;;;;;;5080982;28;19932;-82
2022/01/20 11:20:15;;;;;;;;;;;4.30;99.90;;;;;;5081185;28;19981;-82
2022/01/20 11:22:55;;;;;;;;;;;4.00;99.90;;;;;;5082316;28;19924;-82
2022/01/20 11:25:22;;;;;;;;;;;3.70;99.90;;;;;;5083024;28;20009;-82
2022/01/20 11:27:50;;;;;;;;;;;3.60;99.90;;;;;;5080380;28;19936;-81
2022/01/20 11:30:21;;;;;;;;;;;3.50;99.90;;;;;;5080434;28;19956;-82
2022/01/20 11:32:57;;;;;;;;;;;3.40;99.90;;;;;;5082587;28;20009;-82
2022/01/20 11:35:22;;;;;;;;;;;3.50;99.90;;;;;;5081167;28;19974;-82
2022/01/20 11:37:56;;;;;;;;;;;3.70;99.90;;;;;;5079557;28;19924;-82
2022/01/20 11:40:23;;;;;;;;;;;3.80;99.90;;;;;;5080426;28;19943;-82
2022/01/20 11:42:58;;;;;;;;;;;3.80;99.90;;;;;;5076962;28;20295;-83
2022/01/20 11:45:32;;;;;;;;;;;3.70;99.90;;;;;;5058797;28;19947;-82
2022/01/20 11:47:59;;;;;;;;;;;3.70;99.90;;;;;;5057845;28;20011;-83
2022/01/20 11:50:24;;;;;;;;;;;3.60;99.90;;;;;;5060339;28;19932;-82
2022/01/20 11:52:50;;;;;;;;;;;3.70;99.90;;;;;;5059883;28;19928;-83
2022/01/20 11:55:17;;;;;;;;;;;3.60;99.90;;;;;;5060772;28;19928;-82
2022/01/20 11:57:45;;;;;;;;;;;3.60;99.90;;;;;;5057791;28;20139;-83
2022/01/20 12:00:17;;;;;;;;;;;3.60;99.90;;;;;;5062291;28;19929;-83
2022/01/20 12:02:42;;;;;;;;;;;3.60;99.90;;;;;;5054132;28;19925;-83
2022/01/20 12:05:26;;;;;;;;;;;3.60;99.90;;;;;;5058857;28;19925;-83
2022/01/20 12:07:52;;;;;;;;;;;3.70;99.90;;;;;;5057502;28;19925;-83
2022/01/20 12:10:22;;;;;;;;;;;3.70;99.90;;;;;;5059234;28;19987;-82
2022/01/20 12:12:47;;;;;;;;;;;3.80;99.90;;;;;;5058199;28;19929;-83
2022/01/20 12:15:20;;;;;;;;;;;3.90;99.90;;;;;;5058086;28;20012;-82
2022/01/20 12:17:49;;;;;;;;;;;4.10;99.90;;;;;;5040055;28;19924;-83
2022/01/20 12:20:15;;;;;;;;;;;4.40;99.90;;;;;;5057576;28;20322;-83
2022/01/20 12:22:41;;;;;;;;;;;4.60;99.90;;;;;;5056404;28;19928;-83
2022/01/20 12:25:13;;;;;;;;;;;4.50;99.90;;;;;;5058828;28;19924;-83
2022/01/20 12:27:41;;;;;;;;;;;4.40;99.90;;;;;;5055240;28;19925;-83
2022/01/20 12:30:27;;;;;;;;;;;4.10;99.90;;;;;;5055083;28;20012;-83
2022/01/20 12:33:10;;;;;;;;;;;3.90;99.90;;;;;;5052994;28;19929;-83
2022/01/20 12:35:37;;;;;;;;;;;4.00;99.90;;;;;;5055543;28;20322;-83
2022/01/20 12:38:15;;;;;;;;;;;4.00;99.90;;;;;;5054837;28;19970;-83
2022/01/20 12:40:40;;;;;;;;;;;3.90;99.90;;;;;;5055020;28;19929;-83
2022/01/20 12:43:06;;;;;;;;;;;4.10;99.90;;;;;;5059038;28;19935;-83
2022/01/20 12:48:17;;;;;;;;;;;4.30;99.90;;;;;;5077540;28;19928;-83
2022/01/20 12:50:49;;;;;;;;;;;4.00;99.90;;;;;;5078432;28;19972;-83
2022/01/20 12:53:17;;;;;;;;;;;3.50;99.90;;;;;;5062543;28;19925;-82
2022/01/20 12:55:49;;;;;;;;;;;3.20;99.90;;;;;;5078124;28;20062;-82
2022/01/20 12:58:15;;;;;;;;;;;2.90;99.90;;;;;;5079161;28;19925;-83
2022/01/20 13:00:40;;;;;;;;;;;2.80;99.90;;;;;;5078131;28;19940;-83
2022/01/20 13:03:06;;;;;;;;;;;2.80;99.90;;;;;;5082838;28;19932;-82
2022/01/20 13:05:33;;;;;;;;;;;2.80;99.90;;;;;;5085024;28;20011;-83
2022/01/20 13:08:00;;;;;;;;;;;2.90;99.90;;;;;;5081915;28;19924;-83
2022/01/20 13:10:33;;;;;;;;;;;3.10;99.90;;;;;;5084417;28;19932;-82
2022/01/20 13:13:00;;;;;;;;;;;3.10;99.90;;;;;;5085301;28;19925;-83
2022/01/20 13:15:26;;;;;;;;;;;3.20;99.90;;;;;;5081556;28;19991;-83
2022/01/20 13:18:08;;;;;;;;;;;3.40;99.90;;;;;;5084916;28;19974;-83
2022/01/20 13:20:40;;;;;;;;;;;3.60;99.90;;;;;;5081868;28;19931;-83
2022/01/20 13:23:54;;;;;;;;;;;3.70;99.90;;;;;;5082479;28;19924;-83
2022/01/20 13:26:07;;;;;;;;;;;3.80;99.90;;;;;;5080908;28;19932;-83
2022/01/20 13:28:32;;;;;;;;;;;4.00;99.90;;;;;;5081178;28;20011;-82
2022/01/20 13:31:00;;;;;;;;;;;4.10;99.90;;;;;;5059969;28;20070;-83
2022/01/20 13:33:28;;;;;;;;;;;4.70;99.90;;;;;;5081731;28;20291;-82
2022/01/20 13:35:56;;;;;;;;;;;3.90;99.90;;;;;;5082997;28;19924;-82
2022/01/20 13:38:48;;;;;;;;;;;3.90;99.90;;;;;;5081872;28;20374;-83
2022/01/20 13:41:14;;;;;;;;;;;4.00;99.90;;;;;;5079969;28;19924;-82
2022/01/20 13:46:37;;;;;;;;;;;4.60;99.90;;;;;;5059760;28;19928;-83
2022/01/20 13:49:10;;;;;;;;;;;5.30;99.90;;;;;;5058465;28;19925;-83
2022/01/20 13:51:35;;;;;;;;;;;5.70;99.90;;;;;;5060365;28;19931;-83
2022/01/20 13:54:01;;;;;;;;;;;6.10;99.90;;;;;;5073755;28;19956;-83
2022/01/20 13:56:28;;;;;;;;;;;6.40;99.90;;;;;;5072992;28;19924;-83
2022/01/20 13:59:07;;;;;;;;;;;6.80;99.90;;;;;;5062672;28;19924;-84
2022/01/20 14:01:33;;;;;;;;;;;6.10;99.90;;;;;;5043367;28;19929;-83
2022/01/20 14:03:59;;;;;;;;;;;6.00;99.90;;;;;;5062061;28;20020;-83
2022/01/20 14:06:25;;;;;;;;;;;5.80;99.90;;;;;;5060915;28;19963;-83
2022/01/20 14:08:52;;;;;;;;;;;5.70;99.90;;;;;;5060845;28;19987;-83
2022/01/20 14:11:17;;;;;;;;;;;6.30;99.90;;;;;;5058676;28;19925;-84
2022/01/20 14:13:43;;;;;;;;;;;5.80;99.90;;;;;;5038736;28;20019;-83
2022/01/20 14:16:09;;;;;;;;;;;5.70;99.90;;;;;;5055534;28;19925;-83
2022/01/20 14:18:42;;;;;;;;;;;5.70;99.90;;;;;;5055903;28;19925;-84
2022/01/20 14:21:08;;;;;;;;;;;5.50;99.90;;;;;;5055410;28;19931;-83
2022/01/20 14:23:33;;;;;;;;;;;5.40;99.90;;;;;;5055652;28;19924;-83
2022/01/20 14:26:01;;;;;;;;;;;5.30;99.90;;;;;;5056590;28;20379;-83
2022/01/20 14:28:26;;;;;;;;;;;5.50;99.90;;;;;;5056816;28;19977;-83
2022/01/20 14:30:52;;;;;;;;;;;5.10;99.90;;;;;;5054983;28;20011;-83
2022/01/20 14:33:17;;;;;;;;;;;5.50;99.90;;;;;;5056621;28;19925;-83
2022/01/20 14:35:44;;;;;;;;;;;5.30;99.90;;;;;;5054953;28;19925;-83
2022/01/20 14:38:10;;;;;;;;;;;5.40;99.90;;;;;;5054890;28;19929;-83
2022/01/20 14:40:36;;;;;;;;;;;5.20;99.90;;;;;;5038795;28;19924;-83
2022/01/20 14:43:01;;;;;;;;;;;5.00;99.90;;;;;;5058737;28;19925;-83
2022/01/20 14:45:27;;;;;;;;;;;4.80;99.90;;;;;;5074791;28;19925;-83
2022/01/20 14:47:53;;;;;;;;;;;4.60;99.90;;;;;;5076322;28;20409;-83
2022/01/20 14:50:22;;;;;;;;;;;4.40;99.90;;;;;;5074752;28;19924;-83
2022/01/20 14:52:48;;;;;;;;;;;4.40;99.90;;;;;;5076473;28;19932;-83
2022/01/20 14:55:14;;;;;;;;;;;4.30;99.90;;;;;;5059067;28;19924;-82
2022/01/20 14:57:39;;;;;;;;;;;4.30;99.90;;;;;;5075314;28;19930;-83
2022/01/20 15:00:06;;;;;;;;;;;4.30;99.90;;;;;;5076351;28;19985;-83
2022/01/20 15:02:32;;;;;;;;;;;4.30;99.90;;;;;;5076515;28;19959;-83
2022/01/20 15:04:57;;;;;;;;;;;4.40;99.90;;;;;;5076389;28;20425;-83
2022/01/20 15:07:23;;;;;;;;;;;4.40;99.90;;;;;;5074670;28;19920;-83
2022/01/20 15:09:48;;;;;;;;;;;4.50;99.90;;;;;;5080100;28;19932;-83
2022/01/20 15:12:14;;;;;;;;;;;3.60;99.90;;;;;;5078929;28;20369;-82
2022/01/20 15:14:40;;;;;;;;;;;3.00;99.90;;;;;;5076679;28;19928;-82
2022/01/20 15:17:05;;;;;;;;;;;2.60;99.90;;;;;;5076044;28;20383;-82
2022/01/20 15:19:31;;;;;;;;;;;2.40;99.90;;;;;;5062909;28;19957;-83
2022/01/20 15:21:56;;;;;;;;;;;2.30;99.90;;;;;;5078974;28;19924;-82
2022/01/20 15:24:22;;;;;;;;;;;2.20;99.90;;;;;;5079503;28;19931;-83
2022/01/20 15:26:47;;;;;;;;;;;2.10;99.90;;;;;;5082283;28;19920;-82
2022/01/20 15:29:14;;;;;;;;;;;2.10;99.90;;;;;;5083099;28;20383;-82
2022/01/20 15:31:41;;;;;;;;;;;2.10;99.90;;;;;;5080916;28;19970;-83
2022/01/20 15:34:14;;;;;;;;;;;2.20;99.90;;;;;;5080309;28;19978;-82
2022/01/20 15:36:40;;;;;;;;;;;2.60;99.90;;;;;;5079218;28;19930;-83
2022/01/20 15:39:07;;;;;;;;;;;2.20;99.90;;;;;;5080015;28;19924;-82
2022/01/20 15:41:33;;;;;;;;;;;2.20;99.90;;;;;;5080626;28;19925;-82
2022/01/20 15:43:59;;;;;;;;;;;2.20;99.90;;;;;;5070236;28;19925;-82
2022/01/20 15:46:24;;;;;;;;;;;2.10;99.90;;;;;;5061559;28;20058;-82
2022/01/20 15:48:50;;;;;;;;;;;2.10;99.90;;;;;;5061332;28;19928;-82
2022/01/20 15:51:15;;;;;;;;;;;2.10;99.90;;;;;;5059444;28;19931;-82
2022/01/20 15:53:41;;;;;;;;;;;2.00;99.90;;;;;;5061814;28;20015;-82